Terminal Aerodrome Forecast
Issued by NWS Topeka, KS

Home | Current Version | Previous Version | Text Only | Print | Product List | Glossary On
Versions: 1 2 3 4 5 6 7 8 9 10 11 12 13 14 15 16 17
000
FTUS43 KTOP 031100 RRA
TAFTOP
TAF
KTOP 031141Z 0312/0412 14008KT P6SM BKN070
     FM031500 17011KT P6SM VCTS SCT015 BKN035CB
     FM031800 16011KT P6SM SCT040
     FM040300 15008KT P6SM VCTS SCT015 BKN030CB=

USA.gov is the U.S. government's official web portal to all federal, state and local government web resources and services.